sensor_id;sensor_type;location;lat;lon;timestamp;P1;durP1;ratioP1;P2;durP2;ratioP2
77544;SDS011;66672;50.328;7.610;2023-04-06T00:01:33;7.67;;;4.10;;
77544;SDS011;66672;50.328;7.610;2023-04-06T00:03:59;7.80;;;4.27;;
77544;SDS011;66672;50.328;7.610;2023-04-06T00:06:24;7.17;;;3.70;;
77544;SDS011;66672;50.328;7.610;2023-04-06T00:08:49;10.00;;;4.27;;
77544;SDS011;66672;50.328;7.610;2023-04-06T00:11:15;7.03;;;3.90;;
77544;SDS011;66672;50.328;7.610;2023-04-06T00:13:41;7.03;;;3.70;;
77544;SDS011;66672;50.328;7.610;2023-04-06T00:16:06;7.30;;;3.97;;
77544;SDS011;66672;50.328;7.610;2023-04-06T00:18:32;7.67;;;4.07;;
77544;SDS011;66672;50.328;7.610;2023-04-06T00:20:57;7.67;;;4.70;;
77544;SDS011;66672;50.328;7.610;2023-04-06T00:23:22;7.27;;;3.63;;
77544;SDS011;66672;50.328;7.610;2023-04-06T00:25:47;8.37;;;4.60;;
77544;SDS011;66672;50.328;7.610;2023-04-06T00:28:13;9.73;;;4.20;;
77544;SDS011;66672;50.328;7.610;2023-04-06T00:30:38;8.47;;;3.60;;
77544;SDS011;66672;50.328;7.610;2023-04-06T00:33:03;5.83;;;3.40;;
77544;SDS011;66672;50.328;7.610;2023-04-06T00:35:28;7.67;;;3.87;;
77544;SDS011;66672;50.328;7.610;2023-04-06T00:37:54;7.47;;;4.10;;
77544;SDS011;66672;50.328;7.610;2023-04-06T00:40:19;6.80;;;3.87;;
77544;SDS011;66672;50.328;7.610;2023-04-06T00:42:45;8.47;;;3.70;;
77544;SDS011;66672;50.328;7.610;2023-04-06T00:45:10;8.93;;;3.70;;
77544;SDS011;66672;50.328;7.610;2023-04-06T00:47:35;8.17;;;3.93;;
77544;SDS011;66672;50.328;7.610;2023-04-06T00:50:00;7.40;;;3.70;;
77544;SDS011;66672;50.328;7.610;2023-04-06T00:52:26;7.17;;;4.13;;
77544;SDS011;66672;50.328;7.610;2023-04-06T00:54:51;7.80;;;3.50;;
77544;SDS011;66672;50.328;7.610;2023-04-06T00:57:16;6.37;;;3.80;;
77544;SDS011;66672;50.328;7.610;2023-04-06T00:59:42;8.50;;;4.00;;
77544;SDS011;66672;50.328;7.610;2023-04-06T01:02:07;6.27;;;3.90;;
77544;SDS011;66672;50.328;7.610;2023-04-06T01:04:33;6.37;;;3.60;;
77544;SDS011;66672;50.328;7.610;2023-04-06T01:06:58;8.40;;;3.63;;
77544;SDS011;66672;50.328;7.610;2023-04-06T01:09:24;9.33;;;4.10;;
77544;SDS011;66672;50.328;7.610;2023-04-06T01:11:49;7.00;;;4.13;;
77544;SDS011;66672;50.328;7.610;2023-04-06T01:14:14;8.13;;;3.53;;
77544;SDS011;66672;50.328;7.610;2023-04-06T01:16:40;7.77;;;3.80;;
77544;SDS011;66672;50.328;7.610;2023-04-06T01:19:08;8.03;;;4.33;;
77544;SDS011;66672;50.328;7.610;2023-04-06T01:21:34;8.80;;;3.80;;
77544;SDS011;66672;50.328;7.610;2023-04-06T01:24:00;6.67;;;3.93;;
77544;SDS011;66672;50.328;7.610;2023-04-06T01:26:25;8.23;;;3.93;;
77544;SDS011;66672;50.328;7.610;2023-04-06T01:28:51;9.17;;;4.27;;
77544;SDS011;66672;50.328;7.610;2023-04-06T01:31:17;8.47;;;4.27;;
77544;SDS011;66672;50.328;7.610;2023-04-06T01:33:42;7.53;;;3.90;;
77544;SDS011;66672;50.328;7.610;2023-04-06T01:36:07;7.80;;;4.07;;
77544;SDS011;66672;50.328;7.610;2023-04-06T01:38:33;7.07;;;3.80;;
77544;SDS011;66672;50.328;7.610;2023-04-06T01:40:58;7.10;;;3.53;;
77544;SDS011;66672;50.328;7.610;2023-04-06T01:43:23;7.30;;;3.73;;
77544;SDS011;66672;50.328;7.610;2023-04-06T01:45:48;8.87;;;3.83;;
77544;SDS011;66672;50.328;7.610;2023-04-06T01:48:14;10.37;;;4.07;;
77544;SDS011;66672;50.328;7.610;2023-04-06T01:50:39;8.00;;;4.20;;
77544;SDS011;66672;50.328;7.610;2023-04-06T01:53:04;6.30;;;3.83;;
77544;SDS011;66672;50.328;7.610;2023-04-06T01:55:29;8.13;;;3.80;;
77544;SDS011;66672;50.328;7.610;2023-04-06T01:57:55;6.53;;;3.70;;
77544;SDS011;66672;50.328;7.610;2023-04-06T02:00:20;8.67;;;3.53;;
77544;SDS011;66672;50.328;7.610;2023-04-06T02:02:45;7.27;;;3.53;;
77544;SDS011;66672;50.328;7.610;2023-04-06T02:05:11;7.10;;;3.53;;
77544;SDS011;66672;50.328;7.610;2023-04-06T02:07:36;6.93;;;3.63;;
77544;SDS011;66672;50.328;7.610;2023-04-06T02:10:02;7.87;;;4.20;;
77544;SDS011;66672;50.328;7.610;2023-04-06T02:12:27;7.50;;;3.97;;
77544;SDS011;66672;50.328;7.610;2023-04-06T02:14:52;8.30;;;3.90;;
77544;SDS011;66672;50.328;7.610;2023-04-06T02:17:17;7.80;;;4.37;;
77544;SDS011;66672;50.328;7.610;2023-04-06T02:19:43;7.60;;;3.77;;
77544;SDS011;66672;50.328;7.610;2023-04-06T02:22:08;6.67;;;3.90;;
77544;SDS011;66672;50.328;7.610;2023-04-06T02:24:34;8.97;;;4.20;;
77544;SDS011;66672;50.328;7.610;2023-04-06T02:26:59;6.60;;;3.17;;
77544;SDS011;66672;50.328;7.610;2023-04-06T02:29:25;6.13;;;3.60;;
77544;SDS011;66672;50.328;7.610;2023-04-06T02:31:50;6.63;;;3.60;;
77544;SDS011;66672;50.328;7.610;2023-04-06T02:34:16;7.93;;;4.50;;
77544;SDS011;66672;50.328;7.610;2023-04-06T02:36:45;6.57;;;4.03;;
77544;SDS011;66672;50.328;7.610;2023-04-06T02:39:11;7.13;;;3.90;;
77544;SDS011;66672;50.328;7.610;2023-04-06T02:41:36;5.63;;;3.50;;
77544;SDS011;66672;50.328;7.610;2023-04-06T02:44:02;8.43;;;4.37;;
77544;SDS011;66672;50.328;7.610;2023-04-06T02:46:28;7.20;;;3.70;;
77544;SDS011;66672;50.328;7.610;2023-04-06T02:48:53;7.37;;;3.90;;
77544;SDS011;66672;50.328;7.610;2023-04-06T02:51:18;8.23;;;3.63;;
77544;SDS011;66672;50.328;7.610;2023-04-06T02:53:43;7.53;;;3.83;;
77544;SDS011;66672;50.328;7.610;2023-04-06T02:56:09;9.27;;;4.77;;
77544;SDS011;66672;50.328;7.610;2023-04-06T02:58:34;7.50;;;4.50;;
77544;SDS011;66672;50.328;7.610;2023-04-06T03:01:00;8.43;;;4.20;;
77544;SDS011;66672;50.328;7.610;2023-04-06T03:03:25;9.20;;;4.50;;
77544;SDS011;66672;50.328;7.610;2023-04-06T03:05:51;10.60;;;4.40;;
77544;SDS011;66672;50.328;7.610;2023-04-06T03:08:16;13.60;;;5.90;;
77544;SDS011;66672;50.328;7.610;2023-04-06T03:10:41;7.87;;;4.70;;
77544;SDS011;66672;50.328;7.610;2023-04-06T03:13:06;9.87;;;4.60;;
77544;SDS011;66672;50.328;7.610;2023-04-06T03:15:32;9.57;;;4.40;;
77544;SDS011;66672;50.328;7.610;2023-04-06T03:17:57;9.23;;;5.10;;
77544;SDS011;66672;50.328;7.610;2023-04-06T03:20:22;10.73;;;5.23;;
77544;SDS011;66672;50.328;7.610;2023-04-06T03:22:48;8.93;;;5.00;;
77544;SDS011;66672;50.328;7.610;2023-04-06T03:25:13;9.37;;;4.60;;
77544;SDS011;66672;50.328;7.610;2023-04-06T03:27:38;11.47;;;5.00;;
77544;SDS011;66672;50.328;7.610;2023-04-06T03:30:03;7.87;;;4.53;;
77544;SDS011;66672;50.328;7.610;2023-04-06T03:32:29;16.27;;;7.77;;
77544;SDS011;66672;50.328;7.610;2023-04-06T03:34:54;15.40;;;7.20;;
77544;SDS011;66672;50.328;7.610;2023-04-06T03:37:19;9.73;;;4.77;;
77544;SDS011;66672;50.328;7.610;2023-04-06T03:39:45;8.73;;;4.43;;
77544;SDS011;66672;50.328;7.610;2023-04-06T03:42:10;8.50;;;4.90;;
77544;SDS011;66672;50.328;7.610;2023-04-06T03:44:35;10.67;;;4.53;;
77544;SDS011;66672;50.328;7.610;2023-04-06T03:47:00;7.70;;;4.43;;
77544;SDS011;66672;50.328;7.610;2023-04-06T03:49:27;10.07;;;5.07;;
77544;SDS011;66672;50.328;7.610;2023-04-06T03:51:52;7.93;;;4.40;;
77544;SDS011;66672;50.328;7.610;2023-04-06T03:54:18;10.43;;;5.17;;
77544;SDS011;66672;50.328;7.610;2023-04-06T03:56:43;8.00;;;4.97;;
77544;SDS011;66672;50.328;7.610;2023-04-06T03:59:08;9.97;;;4.90;;
77544;SDS011;66672;50.328;7.610;2023-04-06T04:01:33;8.17;;;4.17;;
77544;SDS011;66672;50.328;7.610;2023-04-06T04:03:59;8.80;;;5.07;;
77544;SDS011;66672;50.328;7.610;2023-04-06T04:06:24;9.93;;;5.33;;
77544;SDS011;66672;50.328;7.610;2023-04-06T04:08:50;8.30;;;4.50;;
77544;SDS011;66672;50.328;7.610;2023-04-06T04:11:15;8.43;;;5.00;;
77544;SDS011;66672;50.328;7.610;2023-04-06T04:13:40;9.50;;;4.93;;
77544;SDS011;66672;50.328;7.610;2023-04-06T04:16:06;7.00;;;4.57;;
77544;SDS011;66672;50.328;7.610;2023-04-06T04:18:31;8.90;;;4.73;;
77544;SDS011;66672;50.328;7.610;2023-04-06T04:20:56;9.27;;;4.47;;
77544;SDS011;66672;50.328;7.610;2023-04-06T04:23:21;10.27;;;5.00;;
77544;SDS011;66672;50.328;7.610;2023-04-06T04:25:46;8.70;;;4.83;;
77544;SDS011;66672;50.328;7.610;2023-04-06T04:28:12;8.20;;;4.77;;
77544;SDS011;66672;50.328;7.610;2023-04-06T04:30:37;9.20;;;5.53;;
77544;SDS011;66672;50.328;7.610;2023-04-06T04:33:02;8.63;;;5.40;;
77544;SDS011;66672;50.328;7.610;2023-04-06T04:35:27;8.37;;;5.07;;
77544;SDS011;66672;50.328;7.610;2023-04-06T04:37:52;8.67;;;5.03;;
77544;SDS011;66672;50.328;7.610;2023-04-06T04:40:18;9.87;;;5.13;;
77544;SDS011;66672;50.328;7.610;2023-04-06T04:42:43;9.13;;;4.70;;
77544;SDS011;66672;50.328;7.610;2023-04-06T04:45:08;9.87;;;4.63;;
77544;SDS011;66672;50.328;7.610;2023-04-06T04:47:34;9.20;;;4.70;;
77544;SDS011;66672;50.328;7.610;2023-04-06T04:49:59;7.80;;;4.80;;
77544;SDS011;66672;50.328;7.610;2023-04-06T04:52:24;9.47;;;5.00;;
77544;SDS011;66672;50.328;7.610;2023-04-06T04:54:49;8.87;;;4.00;;
77544;SDS011;66672;50.328;7.610;2023-04-06T04:57:15;8.50;;;5.13;;
77544;SDS011;66672;50.328;7.610;2023-04-06T04:59:40;10.63;;;4.60;;
77544;SDS011;66672;50.328;7.610;2023-04-06T05:02:05;7.57;;;4.60;;
77544;SDS011;66672;50.328;7.610;2023-04-06T05:04:30;10.27;;;5.47;;
77544;SDS011;66672;50.328;7.610;2023-04-06T05:07:05;8.10;;;4.47;;
77544;SDS011;66672;50.328;7.610;2023-04-06T05:09:31;8.77;;;4.80;;
77544;SDS011;66672;50.328;7.610;2023-04-06T05:11:57;8.60;;;4.50;;
77544;SDS011;66672;50.328;7.610;2023-04-06T05:14:22;10.80;;;5.37;;
77544;SDS011;66672;50.328;7.610;2023-04-06T05:16:48;9.23;;;5.20;;
77544;SDS011;66672;50.328;7.610;2023-04-06T05:19:13;9.20;;;5.10;;
77544;SDS011;66672;50.328;7.610;2023-04-06T05:21:38;10.87;;;5.13;;
77544;SDS011;66672;50.328;7.610;2023-04-06T05:24:03;11.00;;;5.20;;
77544;SDS011;66672;50.328;7.610;2023-04-06T05:26:29;10.03;;;4.73;;
77544;SDS011;66672;50.328;7.610;2023-04-06T05:28:54;10.27;;;5.03;;
77544;SDS011;66672;50.328;7.610;2023-04-06T05:31:20;12.70;;;5.10;;
77544;SDS011;66672;50.328;7.610;2023-04-06T05:33:45;11.10;;;5.00;;
77544;SDS011;66672;50.328;7.610;2023-04-06T05:36:10;10.70;;;4.57;;
77544;SDS011;66672;50.328;7.610;2023-04-06T05:38:36;10.27;;;5.17;;
77544;SDS011;66672;50.328;7.610;2023-04-06T05:41:02;13.03;;;5.00;;
77544;SDS011;66672;50.328;7.610;2023-04-06T05:43:27;10.67;;;5.80;;
77544;SDS011;66672;50.328;7.610;2023-04-06T05:45:52;9.20;;;4.83;;
77544;SDS011;66672;50.328;7.610;2023-04-06T05:48:17;7.57;;;4.40;;
77544;SDS011;66672;50.328;7.610;2023-04-06T05:50:42;10.40;;;5.33;;
77544;SDS011;66672;50.328;7.610;2023-04-06T05:53:08;8.80;;;4.93;;
77544;SDS011;66672;50.328;7.610;2023-04-06T05:55:33;9.03;;;5.20;;
77544;SDS011;66672;50.328;7.610;2023-04-06T05:57:59;8.70;;;5.03;;
77544;SDS011;66672;50.328;7.610;2023-04-06T06:00:24;8.17;;;5.10;;
77544;SDS011;66672;50.328;7.610;2023-04-06T06:02:49;9.03;;;5.27;;
77544;SDS011;66672;50.328;7.610;2023-04-06T06:05:15;9.87;;;5.30;;
77544;SDS011;66672;50.328;7.610;2023-04-06T06:07:40;11.83;;;5.63;;
77544;SDS011;66672;50.328;7.610;2023-04-06T06:10:05;10.13;;;5.47;;
77544;SDS011;66672;50.328;7.610;2023-04-06T06:12:31;10.13;;;5.37;;
77544;SDS011;66672;50.328;7.610;2023-04-06T06:14:56;8.93;;;5.33;;
77544;SDS011;66672;50.328;7.610;2023-04-06T06:17:21;8.63;;;4.90;;
77544;SDS011;66672;50.328;7.610;2023-04-06T06:19:47;9.33;;;5.63;;
77544;SDS011;66672;50.328;7.610;2023-04-06T06:22:12;9.60;;;5.23;;
77544;SDS011;66672;50.328;7.610;2023-04-06T06:24:37;10.53;;;5.30;;
77544;SDS011;66672;50.328;7.610;2023-04-06T06:27:02;11.17;;;5.80;;
77544;SDS011;66672;50.328;7.610;2023-04-06T06:29:27;11.80;;;5.77;;
77544;SDS011;66672;50.328;7.610;2023-04-06T06:31:53;12.90;;;5.20;;
77544;SDS011;66672;50.328;7.610;2023-04-06T06:34:18;10.90;;;5.43;;
77544;SDS011;66672;50.328;7.610;2023-04-06T06:36:43;12.03;;;6.33;;
77544;SDS011;66672;50.328;7.610;2023-04-06T06:39:08;8.93;;;5.27;;
77544;SDS011;66672;50.328;7.610;2023-04-06T06:41:34;10.97;;;5.60;;
77544;SDS011;66672;50.328;7.610;2023-04-06T06:43:59;11.07;;;5.23;;
77544;SDS011;66672;50.328;7.610;2023-04-06T06:46:24;9.97;;;5.63;;
77544;SDS011;66672;50.328;7.610;2023-04-06T06:48:50;9.53;;;5.13;;
77544;SDS011;66672;50.328;7.610;2023-04-06T06:51:15;8.50;;;5.20;;
77544;SDS011;66672;50.328;7.610;2023-04-06T06:53:40;11.10;;;5.20;;
77544;SDS011;66672;50.328;7.610;2023-04-06T06:56:06;11.50;;;5.47;;
77544;SDS011;66672;50.328;7.610;2023-04-06T06:58:31;11.00;;;5.87;;
77544;SDS011;66672;50.328;7.610;2023-04-06T07:00:57;11.17;;;5.73;;
77544;SDS011;66672;50.328;7.610;2023-04-06T07:03:22;7.20;;;2.63;;
77544;SDS011;66672;50.328;7.610;2023-04-06T07:05:48;13.13;;;5.43;;
77544;SDS011;66672;50.328;7.610;2023-04-06T07:08:18;10.23;;;5.10;;
77544;SDS011;66672;50.328;7.610;2023-04-06T07:10:43;11.27;;;5.40;;
77544;SDS011;66672;50.328;7.610;2023-04-06T07:13:08;9.00;;;5.63;;
77544;SDS011;66672;50.328;7.610;2023-04-06T07:15:33;10.23;;;5.77;;
77544;SDS011;66672;50.328;7.610;2023-04-06T07:17:58;11.10;;;5.70;;
77544;SDS011;66672;50.328;7.610;2023-04-06T07:20:24;11.43;;;6.23;;
77544;SDS011;66672;50.328;7.610;2023-04-06T07:22:49;11.77;;;5.90;;
77544;SDS011;66672;50.328;7.610;2023-04-06T07:25:15;12.53;;;5.73;;
77544;SDS011;66672;50.328;7.610;2023-04-06T07:27:40;11.03;;;5.40;;
77544;SDS011;66672;50.328;7.610;2023-04-06T07:30:05;10.63;;;5.73;;
77544;SDS011;66672;50.328;7.610;2023-04-06T07:32:31;10.73;;;6.13;;
77544;SDS011;66672;50.328;7.610;2023-04-06T07:34:57;12.90;;;6.90;;
77544;SDS011;66672;50.328;7.610;2023-04-06T07:37:23;12.00;;;6.00;;
77544;SDS011;66672;50.328;7.610;2023-04-06T07:39:48;10.13;;;6.10;;
77544;SDS011;66672;50.328;7.610;2023-04-06T07:42:13;16.20;;;6.57;;
77544;SDS011;66672;50.328;7.610;2023-04-06T07:44:38;12.30;;;6.37;;
77544;SDS011;66672;50.328;7.610;2023-04-06T07:47:03;11.27;;;6.23;;
77544;SDS011;66672;50.328;7.610;2023-04-06T07:49:29;10.33;;;5.53;;
77544;SDS011;66672;50.328;7.610;2023-04-06T07:51:54;10.67;;;5.03;;
77544;SDS011;66672;50.328;7.610;2023-04-06T07:54:19;10.33;;;5.33;;
77544;SDS011;66672;50.328;7.610;2023-04-06T07:56:45;10.00;;;5.63;;
77544;SDS011;66672;50.328;7.610;2023-04-06T07:59:10;9.93;;;6.30;;
77544;SDS011;66672;50.328;7.610;2023-04-06T08:01:36;10.10;;;5.40;;
77544;SDS011;66672;50.328;7.610;2023-04-06T08:04:01;10.63;;;5.73;;
77544;SDS011;66672;50.328;7.610;2023-04-06T08:06:27;10.83;;;6.00;;
77544;SDS011;66672;50.328;7.610;2023-04-06T08:08:52;10.13;;;6.40;;
77544;SDS011;66672;50.328;7.610;2023-04-06T08:11:17;11.33;;;5.83;;
77544;SDS011;66672;50.328;7.610;2023-04-06T08:13:43;11.07;;;5.63;;
77544;SDS011;66672;50.328;7.610;2023-04-06T08:16:08;19.90;;;6.57;;
77544;SDS011;66672;50.328;7.610;2023-04-06T08:18:33;10.90;;;5.73;;
77544;SDS011;66672;50.328;7.610;2023-04-06T08:20:58;13.37;;;6.90;;
77544;SDS011;66672;50.328;7.610;2023-04-06T08:23:23;11.57;;;6.13;;
77544;SDS011;66672;50.328;7.610;2023-04-06T08:25:49;9.00;;;5.47;;
77544;SDS011;66672;50.328;7.610;2023-04-06T08:28:14;10.50;;;6.27;;
77544;SDS011;66672;50.328;7.610;2023-04-06T08:30:42;9.50;;;5.13;;
77544;SDS011;66672;50.328;7.610;2023-04-06T08:33:07;10.57;;;5.43;;
77544;SDS011;66672;50.328;7.610;2023-04-06T08:35:32;11.40;;;5.73;;
77544;SDS011;66672;50.328;7.610;2023-04-06T08:37:58;11.33;;;5.47;;
77544;SDS011;66672;50.328;7.610;2023-04-06T08:40:23;12.30;;;5.83;;
77544;SDS011;66672;50.328;7.610;2023-04-06T08:42:55;13.53;;;5.60;;
77544;SDS011;66672;50.328;7.610;2023-04-06T08:45:20;12.10;;;5.43;;
77544;SDS011;66672;50.328;7.610;2023-04-06T08:47:46;10.87;;;5.50;;
77544;SDS011;66672;50.328;7.610;2023-04-06T08:50:12;13.30;;;6.43;;
77544;SDS011;66672;50.328;7.610;2023-04-06T08:52:38;11.93;;;6.53;;
77544;SDS011;66672;50.328;7.610;2023-04-06T08:55:04;12.43;;;6.10;;
77544;SDS011;66672;50.328;7.610;2023-04-06T08:57:29;13.00;;;5.83;;
77544;SDS011;66672;50.328;7.610;2023-04-06T08:59:55;10.60;;;6.17;;
77544;SDS011;66672;50.328;7.610;2023-04-06T09:02:21;10.83;;;5.83;;
77544;SDS011;66672;50.328;7.610;2023-04-06T09:04:47;12.17;;;5.87;;
77544;SDS011;66672;50.328;7.610;2023-04-06T09:07:13;12.33;;;5.80;;
77544;SDS011;66672;50.328;7.610;2023-04-06T09:09:39;10.37;;;4.80;;
77544;SDS011;66672;50.328;7.610;2023-04-06T09:12:08;12.67;;;5.60;;
77544;SDS011;66672;50.328;7.610;2023-04-06T09:14:37;10.87;;;5.87;;
77544;SDS011;66672;50.328;7.610;2023-04-06T09:17:03;12.47;;;5.70;;
77544;SDS011;66672;50.328;7.610;2023-04-06T09:19:28;10.73;;;5.33;;
77544;SDS011;66672;50.328;7.610;2023-04-06T09:22:03;12.20;;;5.97;;
77544;SDS011;66672;50.328;7.610;2023-04-06T09:24:38;13.43;;;6.03;;
77544;SDS011;66672;50.328;7.610;2023-04-06T09:27:03;11.33;;;5.13;;
77544;SDS011;66672;50.328;7.610;2023-04-06T09:29:29;12.53;;;5.87;;
77544;SDS011;66672;50.328;7.610;2023-04-06T09:34:29;12.17;;;5.07;;
77544;SDS011;66672;50.328;7.610;2023-04-06T09:36:54;11.73;;;4.90;;
77544;SDS011;66672;50.328;7.610;2023-04-06T09:39:22;12.27;;;5.80;;
77544;SDS011;66672;50.328;7.610;2023-04-06T09:41:51;14.07;;;5.53;;
77544;SDS011;66672;50.328;7.610;2023-04-06T09:44:16;10.83;;;5.77;;
77544;SDS011;66672;50.328;7.610;2023-04-06T09:46:44;13.37;;;6.57;;
77544;SDS011;66672;50.328;7.610;2023-04-06T09:49:09;12.83;;;5.77;;
77544;SDS011;66672;50.328;7.610;2023-04-06T09:54:00;12.63;;;6.70;;
77544;SDS011;66672;50.328;7.610;2023-04-06T09:56:28;14.37;;;5.20;;
77544;SDS011;66672;50.328;7.610;2023-04-06T09:58:55;15.60;;;6.20;;
77544;SDS011;66672;50.328;7.610;2023-04-06T10:01:21;12.43;;;6.13;;
77544;SDS011;66672;50.328;7.610;2023-04-06T10:06:17;9.93;;;5.43;;
77544;SDS011;66672;50.328;7.610;2023-04-06T10:08:44;12.60;;;6.10;;
77544;SDS011;66672;50.328;7.610;2023-04-06T10:11:10;12.63;;;5.83;;
77544;SDS011;66672;50.328;7.610;2023-04-06T10:13:36;11.00;;;5.10;;
77544;SDS011;66672;50.328;7.610;2023-04-06T10:16:01;12.47;;;5.57;;
77544;SDS011;66672;50.328;7.610;2023-04-06T10:18:27;13.27;;;5.30;;
77544;SDS011;66672;50.328;7.610;2023-04-06T10:21:06;10.97;;;5.03;;
77544;SDS011;66672;50.328;7.610;2023-04-06T10:23:43;12.63;;;4.70;;
77544;SDS011;66672;50.328;7.610;2023-04-06T10:26:17;11.63;;;5.40;;
77544;SDS011;66672;50.328;7.610;2023-04-06T10:28:45;9.73;;;4.40;;
77544;SDS011;66672;50.328;7.610;2023-04-06T10:31:11;11.63;;;4.47;;
77544;SDS011;66672;50.328;7.610;2023-04-06T10:33:36;11.95;;;4.82;;
77544;SDS011;66672;50.328;7.610;2023-04-06T10:38:39;12.23;;;4.38;;
77544;SDS011;66672;50.328;7.610;2023-04-06T10:41:05;9.68;;;5.00;;
77544;SDS011;66672;50.328;7.610;2023-04-06T10:43:32;9.55;;;4.10;;
77544;SDS011;66672;50.328;7.610;2023-04-06T10:45:59;9.55;;;4.47;;
77544;SDS011;66672;50.328;7.610;2023-04-06T10:48:25;11.32;;;4.80;;
77544;SDS011;66672;50.328;7.610;2023-04-06T10:51:00;10.38;;;4.53;;
77544;SDS011;66672;50.328;7.610;2023-04-06T10:53:26;12.55;;;5.63;;
77544;SDS011;66672;50.328;7.610;2023-04-06T10:55:53;9.57;;;4.47;;
77544;SDS011;66672;50.328;7.610;2023-04-06T10:58:19;9.80;;;4.53;;
77544;SDS011;66672;50.328;7.610;2023-04-06T11:00:45;9.38;;;4.97;;
77544;SDS011;66672;50.328;7.610;2023-04-06T11:03:11;14.00;;;4.93;;
77544;SDS011;66672;50.328;7.610;2023-04-06T11:05:36;11.85;;;5.28;;
77544;SDS011;66672;50.328;7.610;2023-04-06T11:08:01;13.68;;;5.40;;
77544;SDS011;66672;50.328;7.610;2023-04-06T11:10:26;13.40;;;4.55;;
77544;SDS011;66672;50.328;7.610;2023-04-06T11:12:54;10.73;;;4.50;;
77544;SDS011;66672;50.328;7.610;2023-04-06T11:15:20;11.32;;;5.25;;
77544;SDS011;66672;50.328;7.610;2023-04-06T11:17:45;11.27;;;4.68;;
77544;SDS011;66672;50.328;7.610;2023-04-06T11:20:11;12.40;;;5.15;;
77544;SDS011;66672;50.328;7.610;2023-04-06T11:22:36;10.80;;;4.72;;
77544;SDS011;66672;50.328;7.610;2023-04-06T11:25:12;11.77;;;5.57;;
77544;SDS011;66672;50.328;7.610;2023-04-06T11:27:38;9.70;;;4.28;;
77544;SDS011;66672;50.328;7.610;2023-04-06T11:30:03;11.23;;;4.65;;
77544;SDS011;66672;50.328;7.610;2023-04-06T11:32:29;10.52;;;4.78;;
77544;SDS011;66672;50.328;7.610;2023-04-06T11:34:54;10.77;;;5.07;;
77544;SDS011;66672;50.328;7.610;2023-04-06T11:37:22;10.90;;;4.82;;
77544;SDS011;66672;50.328;7.610;2023-04-06T11:39:51;9.73;;;5.38;;
77544;SDS011;66672;50.328;7.610;2023-04-06T11:44:49;9.45;;;4.63;;
77544;SDS011;66672;50.328;7.610;2023-04-06T11:47:15;12.15;;;5.30;;
77544;SDS011;66672;50.328;7.610;2023-04-06T11:49:41;7.97;;;3.95;;
77544;SDS011;66672;50.328;7.610;2023-04-06T11:54:41;13.05;;;5.28;;
77544;SDS011;66672;50.328;7.610;2023-04-06T11:57:07;10.57;;;5.47;;
77544;SDS011;66672;50.328;7.610;2023-04-06T11:59:32;12.13;;;4.80;;
77544;SDS011;66672;50.328;7.610;2023-04-06T12:01:58;12.48;;;6.47;;
77544;SDS011;66672;50.328;7.610;2023-04-06T12:04:23;9.85;;;4.97;;
77544;SDS011;66672;50.328;7.610;2023-04-06T12:06:48;11.00;;;5.32;;
77544;SDS011;66672;50.328;7.610;2023-04-06T12:09:14;13.50;;;5.47;;
77544;SDS011;66672;50.328;7.610;2023-04-06T12:11:39;11.00;;;4.80;;
77544;SDS011;66672;50.328;7.610;2023-04-06T12:14:05;13.95;;;5.68;;
77544;SDS011;66672;50.328;7.610;2023-04-06T12:16:32;12.45;;;4.80;;
77544;SDS011;66672;50.328;7.610;2023-04-06T12:18:57;9.82;;;4.97;;
77544;SDS011;66672;50.328;7.610;2023-04-06T12:21:22;12.52;;;6.07;;
77544;SDS011;66672;50.328;7.610;2023-04-06T12:23:48;13.15;;;6.38;;
77544;SDS011;66672;50.328;7.610;2023-04-06T12:26:13;14.23;;;7.22;;
77544;SDS011;66672;50.328;7.610;2023-04-06T12:28:38;15.15;;;5.78;;
77544;SDS011;66672;50.328;7.610;2023-04-06T12:31:03;11.90;;;5.95;;
77544;SDS011;66672;50.328;7.610;2023-04-06T12:33:28;10.60;;;5.75;;
77544;SDS011;66672;50.328;7.610;2023-04-06T12:35:54;10.63;;;5.22;;
77544;SDS011;66672;50.328;7.610;2023-04-06T12:38:19;11.35;;;5.43;;
77544;SDS011;66672;50.328;7.610;2023-04-06T12:40:45;12.75;;;5.93;;
77544;SDS011;66672;50.328;7.610;2023-04-06T12:43:10;9.68;;;4.75;;
77544;SDS011;66672;50.328;7.610;2023-04-06T12:45:37;11.40;;;5.07;;
77544;SDS011;66672;50.328;7.610;2023-04-06T12:48:03;12.27;;;5.30;;
77544;SDS011;66672;50.328;7.610;2023-04-06T12:50:28;10.73;;;5.47;;
77544;SDS011;66672;50.328;7.610;2023-04-06T12:52:53;11.50;;;5.25;;
77544;SDS011;66672;50.328;7.610;2023-04-06T12:55:18;10.73;;;5.97;;
77544;SDS011;66672;50.328;7.610;2023-04-06T12:57:44;8.05;;;4.38;;
77544;SDS011;66672;50.328;7.610;2023-04-06T13:00:10;10.85;;;4.05;;
77544;SDS011;66672;50.328;7.610;2023-04-06T13:02:35;10.55;;;5.15;;
77544;SDS011;66672;50.328;7.610;2023-04-06T13:05:00;10.82;;;5.57;;
77544;SDS011;66672;50.328;7.610;2023-04-06T13:07:27;10.48;;;5.57;;
77544;SDS011;66672;50.328;7.610;2023-04-06T13:09:52;11.05;;;4.88;;
77544;SDS011;66672;50.328;7.610;2023-04-06T13:12:18;10.65;;;5.15;;
77544;SDS011;66672;50.328;7.610;2023-04-06T13:14:44;11.38;;;5.03;;
77544;SDS011;66672;50.328;7.610;2023-04-06T13:17:12;11.23;;;5.35;;
77544;SDS011;66672;50.328;7.610;2023-04-06T13:19:37;10.63;;;4.82;;
77544;SDS011;66672;50.328;7.610;2023-04-06T13:22:02;9.05;;;4.80;;
77544;SDS011;66672;50.328;7.610;2023-04-06T13:24:27;8.77;;;5.05;;
77544;SDS011;66672;50.328;7.610;2023-04-06T13:26:53;13.13;;;5.25;;
77544;SDS011;66672;50.328;7.610;2023-04-06T13:29:18;10.10;;;4.68;;
77544;SDS011;66672;50.328;7.610;2023-04-06T13:31:43;12.02;;;5.18;;
77544;SDS011;66672;50.328;7.610;2023-04-06T13:34:08;11.90;;;5.13;;
77544;SDS011;66672;50.328;7.610;2023-04-06T13:36:34;11.07;;;5.57;;
77544;SDS011;66672;50.328;7.610;2023-04-06T13:38:59;10.18;;;5.47;;
77544;SDS011;66672;50.328;7.610;2023-04-06T13:41:25;10.25;;;5.95;;
77544;SDS011;66672;50.328;7.610;2023-04-06T13:43:51;12.07;;;6.10;;
77544;SDS011;66672;50.328;7.610;2023-04-06T13:46:16;12.57;;;5.85;;
77544;SDS011;66672;50.328;7.610;2023-04-06T13:48:42;11.60;;;5.60;;
77544;SDS011;66672;50.328;7.610;2023-04-06T13:51:08;12.48;;;6.05;;
77544;SDS011;66672;50.328;7.610;2023-04-06T13:53:34;11.65;;;5.85;;
77544;SDS011;66672;50.328;7.610;2023-04-06T13:55:59;10.35;;;5.55;;
77544;SDS011;66672;50.328;7.610;2023-04-06T13:58:24;10.02;;;5.25;;
77544;SDS011;66672;50.328;7.610;2023-04-06T14:00:50;9.88;;;5.35;;
77544;SDS011;66672;50.328;7.610;2023-04-06T14:03:15;9.35;;;5.25;;
77544;SDS011;66672;50.328;7.610;2023-04-06T14:05:40;9.70;;;5.43;;
77544;SDS011;66672;50.328;7.610;2023-04-06T14:08:06;10.85;;;4.63;;
77544;SDS011;66672;50.328;7.610;2023-04-06T14:10:31;11.05;;;5.68;;
77544;SDS011;66672;50.328;7.610;2023-04-06T14:12:56;11.88;;;6.00;;
77544;SDS011;66672;50.328;7.610;2023-04-06T14:15:23;10.93;;;5.70;;
77544;SDS011;66672;50.328;7.610;2023-04-06T14:17:49;11.07;;;5.80;;
77544;SDS011;66672;50.328;7.610;2023-04-06T14:20:14;11.20;;;4.38;;
77544;SDS011;66672;50.328;7.610;2023-04-06T14:22:40;6.05;;;3.47;;
77544;SDS011;66672;50.328;7.610;2023-04-06T14:25:06;8.30;;;4.50;;
77544;SDS011;66672;50.328;7.610;2023-04-06T14:27:31;8.52;;;3.78;;
77544;SDS011;66672;50.328;7.610;2023-04-06T14:29:57;9.10;;;3.83;;
77544;SDS011;66672;50.328;7.610;2023-04-06T14:32:22;8.38;;;4.07;;
77544;SDS011;66672;50.328;7.610;2023-04-06T14:34:47;8.30;;;4.55;;
77544;SDS011;66672;50.328;7.610;2023-04-06T14:37:13;6.63;;;3.65;;
77544;SDS011;66672;50.328;7.610;2023-04-06T14:39:38;8.38;;;4.35;;
77544;SDS011;66672;50.328;7.610;2023-04-06T14:42:03;8.80;;;4.53;;
77544;SDS011;66672;50.328;7.610;2023-04-06T14:44:28;7.90;;;4.20;;
77544;SDS011;66672;50.328;7.610;2023-04-06T14:46:53;9.70;;;5.05;;